Time;durP1;ratioP1;P1;durP2;ratioP2;P2;SDS_P1;SDS_P2;PMS_P1;PMS_P2;Temp;Humidity;BMP_temperature;BMP_pressure;BME280_temperature;BME280_humidity;BME280_pressure;Samples;Min_cycle;Max_cycle;Signal;HPM_P1;HPM_P2
2023/10/10 00:00:05;;;;;;;6.22;5.15;;;21.20;96.70;;;;;;5026536;28;20556;-81
2023/10/10 00:02:38;;;;;;;5.43;4.32;;;21.20;96.70;;;;;;5027201;28;20046;-80
2023/10/10 00:05:12;;;;;;;5.22;3.90;;;21.20;96.70;;;;;;5027873;28;20068;-81
2023/10/10 00:07:40;;;;;;;5.90;4.20;;;21.20;96.70;;;;;;5027418;28;20458;-81
2023/10/10 00:10:13;;;;;;;5.68;4.53;;;21.30;96.70;;;;;;5025948;28;20045;-81
2023/10/10 00:12:41;;;;;;;6.03;3.78;;;21.30;96.70;;;;;;5034664;28;20439;-80
2023/10/10 00:15:13;;;;;;;7.88;4.00;;;21.30;96.70;;;;;;5006654;28;20041;-81
2023/10/10 00:17:42;;;;;;;8.60;4.10;;;21.20;96.70;;;;;;5026756;28;20039;-81
2023/10/10 00:20:21;;;;;;;5.78;4.05;;;21.30;96.70;;;;;;5030113;28;20042;-80
2023/10/10 00:22:57;;;;;;;5.28;3.85;;;21.20;96.70;;;;;;5015537;28;20049;-80
2023/10/10 00:25:30;;;;;;;6.00;4.60;;;21.30;96.70;;;;;;5016011;28;20041;-79
2023/10/10 00:28:04;;;;;;;6.22;4.60;;;21.20;96.70;;;;;;5034598;28;20497;-82
2023/10/10 00:30:42;;;;;;;5.75;4.70;;;21.30;96.70;;;;;;5026369;28;20443;-81
2023/10/10 00:33:14;;;;;;;7.57;5.20;;;21.30;96.70;;;;;;5019429;28;20056;-81
2023/10/10 00:35:42;;;;;;;9.25;5.88;;;21.20;96.70;;;;;;5026807;28;20056;-82
2023/10/10 00:38:22;;;;;;;8.60;5.47;;;21.30;96.70;;;;;;5025133;28;20041;-78
2023/10/10 00:40:54;;;;;;;6.28;4.72;;;21.30;96.70;;;;;;5019339;28;20510;-77
2023/10/10 00:43:24;;;;;;;6.72;4.80;;;21.30;96.70;;;;;;5003558;28;20116;-78
2023/10/10 00:45:52;;;;;;;8.00;4.68;;;21.30;96.70;;;;;;5031439;28;20069;-77
2023/10/10 00:48:23;;;;;;;6.68;5.03;;;21.40;96.70;;;;;;5026902;28;20049;-78
2023/10/10 00:51:05;;;;;;;6.85;5.00;;;21.40;96.70;;;;;;5026005;28;20049;-78
2023/10/10 00:53:34;;;;;;;6.63;4.25;;;21.40;96.70;;;;;;5024747;28;20099;-78
2023/10/10 00:56:07;;;;;;;6.57;4.35;;;21.30;96.70;;;;;;5022987;28;20067;-76
2023/10/10 00:58:37;;;;;;;7.15;4.38;;;21.30;96.70;;;;;;5008901;28;20053;-78
2023/10/10 01:01:14;;;;;;;6.25;4.55;;;21.30;96.70;;;;;;5021766;28;20050;-77
2023/10/10 01:03:45;;;;;;;10.90;5.35;;;21.30;96.70;;;;;;5024805;28;20540;-78
2023/10/10 01:06:24;;;;;;;7.15;5.00;;;21.30;96.70;;;;;;5031181;28;20070;-77
2023/10/10 01:08:55;;;;;;;5.30;4.38;;;21.30;96.70;;;;;;5031530;28;20410;-77
2023/10/10 01:11:25;;;;;;;7.93;4.50;;;21.20;96.70;;;;;;5025068;28;20045;-77
2023/10/10 01:13:53;;;;;;;5.35;4.25;;;21.30;96.70;;;;;;5027229;28;20049;-78
2023/10/10 01:16:27;;;;;;;5.80;4.35;;;21.20;96.70;;;;;;5022617;28;20037;-77
2023/10/10 01:18:59;;;;;;;5.00;4.35;;;21.30;96.70;;;;;;5007607;28;20065;-77
2023/10/10 01:21:43;;;;;;;6.22;4.50;;;21.20;96.70;;;;;;5023184;28;20053;-77
2023/10/10 01:24:17;;;;;;;7.45;4.47;;;21.20;96.70;;;;;;5022866;28;20601;-77
2023/10/10 01:26:47;;;;;;;9.27;4.90;;;21.20;96.70;;;;;;5029959;28;20046;-78
2023/10/10 01:29:25;;;;;;;10.18;5.50;;;21.20;96.70;;;;;;5028594;28;20541;-78
2023/10/10 01:31:58;;;;;;;6.65;4.53;;;21.20;96.70;;;;;;5018572;28;20065;-78
2023/10/10 01:34:30;;;;;;;7.35;4.72;;;21.20;96.70;;;;;;5030193;28;20499;-77
2023/10/10 01:37:29;;;;;;;6.68;4.57;;;21.30;96.70;;;;;;5043241;28;20126;-78
2023/10/10 01:40:15;;;;;;;9.35;4.85;;;21.40;96.70;;;;;;5038211;28;20053;-78
2023/10/10 01:42:53;;;;;;;6.43;4.95;;;21.30;96.70;;;;;;5031829;28;20426;-77
2023/10/10 01:45:26;;;;;;;7.97;4.78;;;21.20;96.70;;;;;;5034577;28;20414;-78
2023/10/10 01:47:58;;;;;;;7.45;4.60;;;21.20;96.70;;;;;;5050614;28;20076;-77
2023/10/10 01:50:26;;;;;;;6.78;4.82;;;21.20;96.70;;;;;;5012898;28;20055;-76
2023/10/10 01:52:57;;;;;;;7.53;5.35;;;21.30;96.70;;;;;;5009827;28;20513;-78
2023/10/10 01:55:26;;;;;;;8.40;6.03;;;21.40;96.70;;;;;;5033431;28;20055;-77
2023/10/10 01:57:57;;;;;;;9.65;6.47;;;21.50;96.70;;;;;;5017769;28;20046;-79
2023/10/10 02:00:26;;;;;;;9.43;6.57;;;21.30;96.70;;;;;;5035398;28;20123;-76
2023/10/10 02:02:56;;;;;;;9.10;7.38;;;21.20;96.70;;;;;;5030128;28;20063;-76
2023/10/10 02:08:03;;;;;;;13.95;11.00;;;21.20;96.70;;;;;;5030527;28;20103;-78
2023/10/10 02:10:32;;;;;;;15.23;10.68;;;21.30;96.70;;;;;;5045327;28;20053;-77
2023/10/10 02:13:04;;;;;;;12.77;9.95;;;21.20;96.70;;;;;;5023683;28;20137;-78
2023/10/10 02:15:35;;;;;;;14.32;9.27;;;21.20;96.70;;;;;;5023091;28;20106;-77
2023/10/10 02:18:04;;;;;;;15.90;9.88;;;21.20;96.70;;;;;;5048744;28;20059;-76
2023/10/10 02:20:49;;;;;;;14.23;10.25;;;21.20;96.70;;;;;;5040630;28;20045;-78
2023/10/10 02:23:24;;;;;;;15.85;11.05;;;21.20;96.70;;;;;;5037119;28;20111;-76
2023/10/10 02:26:01;;;;;;;14.80;11.18;;;21.30;96.70;;;;;;5030444;28;20457;-77
2023/10/10 02:28:49;;;;;;;15.52;11.50;;;21.30;96.70;;;;;;5025416;28;20095;-78
2023/10/10 02:31:19;;;;;;;;;;;21.40;96.70;;;;;;5049153;28;20049;-76
2023/10/10 02:33:48;;;;;;;14.70;9.57;;;21.30;96.70;;;;;;5046494;28;19930;-77
2023/10/10 02:36:29;;;;;;;16.35;10.73;;;20.90;96.70;;;;;;5013278;28;20147;-78
2023/10/10 02:41:57;;;;;;;12.40;8.77;;;20.80;96.70;;;;;;5027513;28;20072;-78
2023/10/10 02:44:38;;;;;;;12.88;9.90;;;20.90;96.70;;;;;;5019109;28;20132;-78
2023/10/10 02:47:08;;;;;;;13.68;9.52;;;21.10;96.70;;;;;;5044267;28;20506;-78
2023/10/10 02:49:37;;;;;;;12.10;9.38;;;20.90;96.70;;;;;;5018920;28;20541;-78
2023/10/10 02:52:06;;;;;;;12.57;9.00;;;21.00;96.70;;;;;;5037486;28;20375;-78
2023/10/10 02:54:53;;;;;;;12.80;8.88;;;21.00;96.70;;;;;;5019480;28;20154;-78
2023/10/10 03:00:28;;;;;;;15.15;9.75;;;21.10;96.70;;;;;;5029481;28;20045;-78
2023/10/10 03:02:49;;;;;;;15.32;10.35;;;21.10;96.70;;;;;;5019138;28;20061;-78
2023/10/10 03:08:16;;;;;;;15.65;10.70;;;21.10;96.70;;;;;;5027383;28;20053;-76
2023/10/10 03:10:54;;;;;;;15.85;10.75;;;21.10;96.70;;;;;;5031734;28;20054;-78
2023/10/10 03:13:47;;;;;;;16.98;10.43;;;21.10;96.70;;;;;;5027420;28;20668;-78
2023/10/10 03:27:48;;;;;;;12.40;8.00;;;21.10;96.70;;;;;;5025884;28;20044;-79
2023/10/10 03:30:17;;;;;;;15.40;8.80;;;21.10;96.70;;;;;;5043254;28;20049;-78
2023/10/10 03:35:33;;;;;;;;;;;21.10;96.70;;;;;;5029291;28;20124;-78
2023/10/10 03:38:26;;;;;;;14.32;8.43;;;21.10;96.70;;;;;;5028434;28;20398;-78
2023/10/10 05:24:14;;;;;;;15.33;8.30;;;20.40;96.70;;;;;;5019509;28;20053;-83
2023/10/10 05:26:49;;;;;;;12.43;7.72;;;20.50;96.70;;;;;;5027786;28;20099;-84
2023/10/10 05:29:19;;;;;;;10.63;7.32;;;20.40;96.70;;;;;;5035097;28;20045;-85
2023/10/10 05:31:47;;;;;;;14.35;7.78;;;20.50;96.70;;;;;;5034701;28;20534;-85
2023/10/10 05:34:15;;;;;;;14.73;8.32;;;20.40;96.70;;;;;;5018590;28;20481;-85
2023/10/10 05:36:46;;;;;;;16.73;7.20;;;20.40;96.70;;;;;;5027006;28;20041;-86
2023/10/10 05:39:21;;;;;;;13.23;8.32;;;20.30;96.70;;;;;;5037179;28;20056;-85
2023/10/10 05:41:54;;;;;;;12.75;7.85;;;20.30;96.70;;;;;;5034786;28;20045;-85
2023/10/10 05:44:23;;;;;;;11.77;7.40;;;20.30;96.70;;;;;;5027382;28;20037;-84
2023/10/10 05:46:52;;;;;;;13.07;7.10;;;20.30;96.70;;;;;;5027194;28;20179;-84
2023/10/10 05:49:21;;;;;;;12.02;7.80;;;20.30;96.70;;;;;;5027376;28;20037;-84
2023/10/10 05:51:49;;;;;;;12.95;7.35;;;20.20;96.70;;;;;;5027186;28;20045;-86
2023/10/10 05:54:19;;;;;;;10.63;7.07;;;20.20;96.70;;;;;;5026651;28;20100;-85
2023/10/10 05:56:47;;;;;;;15.60;7.25;;;20.30;96.70;;;;;;5007444;28;20870;-84
2023/10/10 05:59:14;;;;;;;14.02;8.02;;;20.30;96.70;;;;;;5027728;28;20049;-85
2023/10/10 06:01:43;;;;;;;15.10;7.95;;;20.30;96.70;;;;;;5026984;28;20048;-84
2023/10/10 06:04:11;;;;;;;17.48;9.00;;;20.30;96.70;;;;;;5028284;28;20072;-85
2023/10/10 06:06:42;;;;;;;19.58;9.77;;;20.20;96.70;;;;;;5026096;28;20069;-85
2023/10/10 06:09:18;;;;;;;18.17;10.05;;;20.30;96.70;;;;;;5035429;28;20037;-85
2023/10/10 06:11:49;;;;;;;;;;;20.30;96.70;;;;;;5037288;28;20057;-86
2023/10/10 06:14:21;;;;;;;23.95;13.27;;;20.30;96.70;;;;;;5027054;28;19964;-85
2023/10/10 06:16:50;;;;;;;25.15;14.18;;;20.30;96.70;;;;;;5032225;28;20045;-85
2023/10/10 06:19:20;;;;;;;27.05;14.32;;;20.30;96.70;;;;;;5039683;28;20053;-85
2023/10/10 06:21:49;;;;;;;25.83;15.18;;;20.30;96.70;;;;;;5021965;28;20129;-84
2023/10/10 06:24:18;;;;;;;28.08;14.68;;;20.30;96.70;;;;;;5026618;28;20488;-85
2023/10/10 06:26:47;;;;;;;25.00;14.55;;;20.30;96.70;;;;;;5032011;28;20061;-85
2023/10/10 06:29:17;;;;;;;29.05;14.98;;;20.20;96.70;;;;;;5028317;28;20053;-85
2023/10/10 06:31:45;;;;;;;24.00;14.10;;;20.20;96.70;;;;;;5029052;28;20045;-85
2023/10/10 06:34:19;;;;;;;27.85;14.68;;;20.30;96.70;;;;;;5011523;28;20052;-84
2023/10/10 06:36:49;;;;;;;25.80;14.68;;;20.30;96.70;;;;;;5028410;28;20049;-84
2023/10/10 06:41:54;;;;;;;24.48;13.88;;;20.30;96.70;;;;;;5035596;28;20095;-84
2023/10/10 06:44:35;;;;;;;27.88;15.13;;;20.50;96.70;;;;;;5032033;28;20044;-84
2023/10/10 06:47:10;;;;;;;27.05;14.45;;;20.60;96.70;;;;;;5023060;28;20099;-83
2023/10/10 06:49:43;;;;;;;23.80;12.98;;;20.50;96.70;;;;;;5026038;28;20060;-82
2023/10/10 06:52:18;;;;;;;27.67;14.90;;;20.60;96.70;;;;;;5035742;28;20461;-82
2023/10/10 06:54:53;;;;;;;27.02;14.43;;;20.70;96.70;;;;;;5029714;28;20053;-82
2023/10/10 06:57:35;;;;;;;24.90;13.98;;;20.70;96.70;;;;;;5020925;28;20049;-83
2023/10/10 07:02:51;;;;;;;24.25;13.98;;;20.80;96.70;;;;;;5026961;28;20033;-86
2023/10/10 07:05:19;;;;;;;27.92;14.85;;;20.80;96.70;;;;;;5023854;28;20050;-82
2023/10/10 07:07:53;;;;;;;25.08;14.57;;;20.80;96.70;;;;;;5010518;28;20540;-83
2023/10/10 07:10:42;;;;;;;25.10;14.43;;;20.80;96.70;;;;;;5028996;28;20091;-83
2023/10/10 07:13:14;;;;;;;25.60;14.88;;;20.90;96.70;;;;;;5027576;28;20049;-81
2023/10/10 07:15:51;;;;;;;29.63;14.50;;;21.00;96.70;;;;;;5021463;28;20053;-86
2023/10/10 07:18:22;;;;;;;27.00;14.70;;;21.00;96.70;;;;;;5030694;28;20076;-86
2023/10/10 07:21:08;;;;;;;29.58;15.15;;;21.10;96.70;;;;;;5030994;28;20132;-88
2023/10/10 07:23:38;;;;;;;25.52;14.60;;;21.30;96.70;;;;;;5038129;28;20037;-87
2023/10/10 07:26:18;;;;;;;25.75;14.05;;;21.20;96.70;;;;;;5028812;28;20538;-84
2023/10/10 07:28:48;;;;;;;26.05;14.05;;;21.20;96.70;;;;;;5037712;28;20121;-86
2023/10/10 07:31:20;;;;;;;23.55;13.07;;;21.20;96.70;;;;;;5046357;28;20065;-86
2023/10/10 07:33:55;;;;;;;24.38;13.38;;;21.30;96.70;;;;;;5028653;28;20045;-86
2023/10/10 07:36:25;;;;;;;20.95;13.80;;;21.40;96.70;;;;;;5033914;28;20045;-87
2023/10/10 07:38:54;;;;;;;22.73;13.63;;;21.40;96.70;;;;;;5028898;28;20053;-86
2023/10/10 07:41:27;;;;;;;20.80;13.15;;;21.50;96.70;;;;;;5028749;28;20505;-87
2023/10/10 07:43:59;;;;;;;24.15;14.15;;;21.40;96.70;;;;;;5022207;28;20057;-86
2023/10/10 07:46:35;;;;;;;22.45;13.25;;;21.50;96.70;;;;;;5029830;28;20550;-84
2023/10/10 07:49:03;;;;;;;;;;;21.40;96.70;;;;;;5029115;28;20052;-80
2023/10/10 07:51:34;;;;;;;20.38;11.88;;;21.40;96.70;;;;;;5031385;28;19932;-78
2023/10/10 07:54:12;;;;;;;17.17;11.30;;;21.50;96.70;;;;;;5040500;28;20102;-79
2023/10/10 07:56:45;;;;;;;15.70;10.27;;;21.50;96.70;;;;;;5030707;28;20576;-80
2023/10/10 07:59:13;;;;;;;18.02;11.77;;;21.70;96.70;;;;;;5034778;28;20045;-81
2023/10/10 08:01:44;;;;;;;20.58;12.82;;;21.80;96.70;;;;;;5034577;28;20502;-81
2023/10/10 08:04:14;;;;;;;14.88;10.80;;;21.80;96.70;;;;;;5027607;28;20520;-80
2023/10/10 08:06:45;;;;;;;16.27;10.30;;;21.90;96.70;;;;;;5035792;28;20052;-80
2023/10/10 08:11:44;;;;;;;16.17;9.70;;;21.90;96.70;;;;;;5039424;28;20163;-82
2023/10/10 08:14:12;;;;;;;15.80;10.05;;;21.90;96.70;;;;;;5028917;28;20056;-81
2023/10/10 08:16:43;;;;;;;15.07;9.57;;;22.00;96.70;;;;;;5043014;28;20072;-81
2023/10/10 08:19:13;;;;;;;14.02;9.60;;;21.90;96.70;;;;;;5045369;28;20487;-79
2023/10/10 08:21:51;;;;;;;13.77;9.43;;;22.00;96.70;;;;;;5035529;28;20048;-79
2023/10/10 08:24:19;;;;;;;12.77;9.02;;;22.10;96.70;;;;;;5041515;28;20102;-80
2023/10/10 08:26:51;;;;;;;12.20;8.70;;;22.10;96.70;;;;;;5010911;28;20029;-79
2023/10/10 08:29:25;;;;;;;12.10;9.63;;;22.20;96.70;;;;;;5011364;28;20045;-78
2023/10/10 08:31:55;;;;;;;12.60;9.88;;;22.20;96.70;;;;;;5024082;28;20071;-80
2023/10/10 08:34:24;;;;;;;14.82;10.63;;;22.20;96.70;;;;;;5024667;28;20687;-79
2023/10/10 08:37:02;;;;;;;15.02;9.88;;;22.20;96.70;;;;;;5008264;28;20053;-79
2023/10/10 08:39:37;;;;;;;14.43;10.52;;;22.20;96.70;;;;;;5017264;28;20128;-80
2023/10/10 08:42:05;;;;;;;14.82;11.02;;;22.20;96.70;;;;;;5028201;28;20051;-79
2023/10/10 08:44:37;;;;;;;14.23;10.77;;;22.20;96.70;;;;;;5037746;28;20037;-80
2023/10/10 08:47:32;;;;;;;15.50;9.32;;;22.30;96.70;;;;;;5008469;28;20073;-80
2023/10/10 08:50:00;;;;;;;15.02;10.35;;;22.30;96.70;;;;;;5017899;28;20084;-79
2023/10/10 08:52:32;;;;;;;15.25;9.95;;;22.50;96.70;;;;;;5012592;28;20053;-79
2023/10/10 08:55:01;;;;;;;20.90;10.18;;;22.50;96.70;;;;;;5027400;28;20770;-78
2023/10/10 08:57:30;;;;;;;14.38;9.98;;;22.50;96.70;;;;;;5033492;28;20037;-78
2023/10/10 08:59:59;;;;;;;12.88;9.38;;;22.50;96.70;;;;;;5019157;28;20119;-79
2023/10/10 09:02:33;;;;;;;15.85;10.23;;;22.70;96.70;;;;;;5011135;28;20099;-83
2023/10/10 09:05:06;;;;;;;10.38;8.60;;;22.70;96.70;;;;;;5038379;28;20054;-80
2023/10/10 09:07:42;;;;;;;13.38;8.98;;;22.80;96.70;;;;;;5013319;28;20418;-81
2023/10/10 09:10:18;;;;;;;11.98;8.95;;;22.90;96.70;;;;;;5043383;28;20560;-79
2023/10/10 09:12:55;;;;;;;14.50;10.07;;;23.10;96.70;;;;;;5042365;28;20053;-80
2023/10/10 09:15:24;;;;;;;12.10;9.52;;;23.10;96.70;;;;;;5031508;28;20045;-80
2023/10/10 09:18:12;;;;;;;14.77;9.88;;;23.20;96.70;;;;;;5031689;28;20049;-81
2023/10/10 09:20:44;;;;;;;13.63;10.05;;;23.30;96.70;;;;;;5022281;28;20125;-77
2023/10/10 09:23:24;;;;;;;14.55;9.85;;;23.50;96.70;;;;;;5025096;28;20479;-77
2023/10/10 09:26:09;;;;;;;11.88;8.90;;;23.60;96.70;;;;;;5022014;28;20046;-79
2023/10/10 09:28:45;;;;;;;15.35;9.10;;;23.70;96.70;;;;;;5027155;28;20049;-78
2023/10/10 09:31:26;;;;;;;12.75;9.10;;;23.80;96.70;;;;;;5033743;28;20052;-78
2023/10/10 09:33:56;;;;;;;12.40;8.25;;;23.80;96.70;;;;;;5034099;28;20072;-78
2023/10/10 09:36:27;;;;;;;13.05;8.07;;;23.70;96.70;;;;;;5033067;28;20098;-77
2023/10/10 09:39:11;;;;;;;13.57;7.55;;;23.90;96.70;;;;;;5024566;28;20137;-79
2023/10/10 09:50:51;;;;;;;14.55;7.72;;;24.10;96.70;;;;;;5005372;28;20115;-78
2023/10/10 09:53:19;;;;;;;12.45;7.18;;;24.20;96.70;;;;;;5004063;28;20049;-77
2023/10/10 09:55:53;;;;;;;13.15;7.90;;;24.20;96.70;;;;;;5024383;28;20601;-77
2023/10/10 09:58:26;;;;;;;17.30;8.10;;;24.30;96.70;;;;;;5020275;28;20077;-78
2023/10/10 10:01:12;;;;;;;16.17;6.95;;;24.40;96.70;;;;;;5016574;28;20673;-78
2023/10/10 10:04:11;;;;;;;12.25;7.07;;;24.50;96.70;;;;;;5021185;28;20057;-78
2023/10/10 10:06:55;;;;;;;10.73;6.72;;;24.70;96.70;;;;;;5013784;28;20463;-78
2023/10/10 10:10:09;;;;;;;11.00;5.45;;;24.70;96.70;;;;;;5018378;28;20045;-78
2023/10/10 10:12:54;;;;;;;10.68;5.80;;;24.60;96.70;;;;;;4990014;28;20417;-78
2023/10/10 10:15:48;;;;;;;9.50;5.90;;;24.60;96.70;;;;;;5003742;28;20054;-78
2023/10/10 10:18:27;;;;;;;11.10;6.35;;;24.70;96.70;;;;;;5013348;28;20050;-77
2023/10/10 10:21:16;;;;;;;11.60;6.90;;;24.90;96.70;;;;;;5017183;28;20076;-79
2023/10/10 10:23:55;;;;;;;8.30;5.43;;;25.00;96.70;;;;;;5030423;28;20037;-78
2023/10/10 10:26:41;;;;;;;11.27;6.20;;;25.20;96.70;;;;;;5029370;28;20033;-80
2023/10/10 10:29:27;;;;;;;11.82;5.55;;;25.40;96.70;;;;;;5033846;28;20135;-79
2023/10/10 10:32:00;;;;;;;7.18;5.32;;;25.10;96.70;;;;;;5031773;28;20550;-78
2023/10/10 10:34:31;;;;;;;6.95;4.72;;;25.20;96.70;;;;;;5047465;28;20053;-78
2023/10/10 10:37:13;;;;;;;9.65;5.10;;;25.30;96.70;;;;;;5022993;28;20050;-78
2023/10/10 10:42:34;;;;;;;6.97;4.78;;;25.60;96.70;;;;;;5040147;28;20051;-78
2023/10/10 10:45:25;;;;;;;8.65;4.82;;;25.80;96.70;;;;;;5029663;28;20053;-78
2023/10/10 10:47:59;;;;;;;7.53;5.00;;;25.90;96.70;;;;;;5026370;28;20053;-79
2023/10/10 10:50:42;;;;;;;9.65;5.03;;;25.90;96.70;;;;;;5026848;28;20462;-78
2023/10/10 10:53:30;;;;;;;6.20;4.90;;;25.70;96.70;;;;;;5026456;28;20049;-79
2023/10/10 11:01:26;;;;;;;9.85;5.00;;;25.80;96.70;;;;;;5027260;28;20049;-79
2023/10/10 11:03:55;;;;;;;8.52;5.20;;;25.70;96.70;;;;;;5034247;28;20165;-78
2023/10/10 11:06:24;;;;;;;7.28;4.15;;;25.90;96.70;;;;;;5009958;28;20155;-78
2023/10/10 11:08:52;;;;;;;10.07;4.55;;;25.70;96.70;;;;;;5044383;28;20118;-80
2023/10/10 11:14:00;;;;;;;6.85;4.70;;;26.00;96.70;;;;;;5025398;28;20553;-78
2023/10/10 11:16:39;;;;;;;7.93;4.68;;;26.00;96.70;;;;;;5034815;28;20130;-78
2023/10/10 11:21:54;;;;;;;7.82;4.82;;;26.10;96.70;;;;;;5025982;28;20583;-77
2023/10/10 11:24:26;;;;;;;8.27;4.60;;;26.30;96.70;;;;;;5016296;28;20139;-78
2023/10/10 11:29:41;;;;;;;4.97;3.97;;;26.70;96.70;;;;;;5044110;28;20045;-79
2023/10/10 11:32:12;;;;;;;9.00;4.93;;;26.80;96.70;;;;;;5022810;28;20726;-78
2023/10/10 11:34:46;;;;;;;7.03;4.45;;;27.00;96.70;;;;;;5046329;28;20335;-78
2023/10/10 11:37:26;;;;;;;;;;;27.00;96.70;;;;;;5038544;28;20052;-78
2023/10/10 11:40:31;;;;;;;7.28;4.30;;;27.00;96.70;;;;;;5044424;28;19924;-79
2023/10/10 11:43:05;;;;;;;7.68;4.40;;;27.10;96.70;;;;;;5045837;28;20064;-79
2023/10/10 11:45:44;;;;;;;7.60;4.57;;;27.10;96.70;;;;;;5036094;28;20041;-79
2023/10/10 11:48:13;;;;;;;8.27;4.28;;;27.10;96.70;;;;;;5036372;28;20049;-79
2023/10/10 11:50:46;;;;;;;6.68;3.80;;;27.10;96.70;;;;;;5034765;28;20049;-78
2023/10/10 11:53:19;;;;;;;6.82;3.78;;;27.10;96.70;;;;;;5035631;28;20049;-81
2023/10/10 11:55:49;;;;;;;8.23;4.45;;;27.20;96.70;;;;;;5036155;28;20056;-82
2023/10/10 11:58:19;;;;;;;7.53;4.32;;;27.10;96.70;;;;;;5018831;28;20048;-82
2023/10/10 12:03:52;;;;;;;6.75;3.78;;;27.40;96.70;;;;;;4978677;28;20514;-81
2023/10/10 12:06:26;;;;;;;6.47;4.10;;;27.40;96.70;;;;;;4989892;28;20058;-82
2023/10/10 12:08:55;;;;;;;8.70;4.20;;;27.50;96.70;;;;;;4992585;28;20439;-82
2023/10/10 12:11:23;;;;;;;8.50;4.10;;;27.50;96.70;;;;;;4986829;28;20112;-82
2023/10/10 12:13:54;;;;;;;6.50;4.00;;;27.40;96.70;;;;;;4985346;28;20093;-81
2023/10/10 12:16:25;;;;;;;11.20;4.07;;;27.50;96.70;;;;;;4977092;28;20046;-82
2023/10/10 12:18:53;;;;;;;7.95;4.80;;;27.60;96.70;;;;;;4983441;28;20058;-81
2023/10/10 12:21:25;;;;;;;6.85;4.03;;;27.60;96.70;;;;;;4993545;28;20042;-81
2023/10/10 12:23:55;;;;;;;7.88;3.95;;;27.70;96.70;;;;;;4996277;28;20056;-81
2023/10/10 12:26:29;;;;;;;7.60;4.37;;;27.80;96.70;;;;;;4969550;28;20050;-81
2023/10/10 12:29:00;;;;;;;8.43;4.18;;;27.80;96.70;;;;;;4969404;28;20301;-80
2023/10/10 12:31:33;;;;;;;7.78;3.85;;;27.70;96.70;;;;;;4970145;28;20056;-81
2023/10/10 12:34:01;;;;;;;8.30;3.80;;;27.70;96.70;;;;;;4985060;28;20058;-81
2023/10/10 12:36:30;;;;;;;5.38;3.30;;;27.70;96.70;;;;;;4982581;28;20469;-81
2023/10/10 12:38:59;;;;;;;7.65;3.85;;;27.70;96.70;;;;;;5004684;28;20523;-81
2023/10/10 12:41:28;;;;;;;8.48;3.47;;;27.80;96.70;;;;;;5027649;28;20049;-80
2023/10/10 12:43:56;;;;;;;8.20;3.78;;;27.80;96.70;;;;;;5025762;28;20052;-81
2023/10/10 12:46:25;;;;;;;7.97;4.00;;;27.80;96.70;;;;;;5025925;28;20099;-80
2023/10/10 12:48:53;;;;;;;6.35;3.40;;;27.80;96.70;;;;;;5042152;28;20057;-81
2023/10/10 12:51:23;;;;;;;8.85;3.97;;;27.80;96.70;;;;;;5039228;28;20050;-81
2023/10/10 12:54:05;;;;;;;11.48;4.50;;;27.80;96.70;;;;;;5024993;28;20069;-81
2023/10/10 12:56:39;;;;;;;20.50;5.05;;;27.70;96.70;;;;;;5018765;28;21476;-81
2023/10/10 12:59:48;;;;;;;9.80;3.72;;;27.80;96.70;;;;;;4950804;28;20543;-81
2023/10/10 13:02:25;;;;;;;10.82;4.18;;;27.60;96.70;;;;;;4932950;28;20122;-80
2023/10/10 13:04:56;;;;;;;6.68;3.78;;;27.60;96.70;;;;;;4932378;28;20715;-81
2023/10/10 13:07:24;;;;;;;7.85;3.80;;;27.80;96.70;;;;;;4942916;28;20133;-80
2023/10/10 13:09:55;;;;;;;8.35;3.85;;;27.60;96.70;;;;;;4923254;28;20046;-82
2023/10/10 13:12:32;;;;;;;7.55;3.53;;;27.60;96.70;;;;;;4947000;28;20047;-80
2023/10/10 13:15:17;;;;;;;8.00;3.40;;;27.60;96.70;;;;;;4945797;28;20047;-81
2023/10/10 13:18:19;;;;;;;8.88;3.70;;;27.50;96.70;;;;;;4935844;28;20297;-80
2023/10/10 13:20:51;;;;;;;13.00;4.35;;;27.60;96.70;;;;;;4951911;28;20039;-81
2023/10/10 13:23:20;;;;;;;14.52;4.70;;;27.70;96.70;;;;;;4946538;28;20513;-80
2023/10/10 13:25:48;;;;;;;11.27;3.60;;;27.60;96.70;;;;;;4937652;28;20050;-81
2023/10/10 13:28:17;;;;;;;9.25;4.10;;;27.50;96.70;;;;;;4947035;28;20110;-80
2023/10/10 13:30:48;;;;;;;7.78;3.42;;;27.50;96.70;;;;;;4929739;28;20079;-82
2023/10/10 13:33:20;;;;;;;6.47;3.38;;;27.40;96.70;;;;;;4932699;28;20050;-80
2023/10/10 13:35:48;;;;;;;6.28;3.38;;;27.50;96.70;;;;;;4937076;28;20138;-80
2023/10/10 13:38:17;;;;;;;5.63;3.40;;;27.50;96.70;;;;;;5027504;28;20042;-81
2023/10/10 13:40:48;;;;;;;6.72;3.70;;;27.50;96.70;;;;;;5025820;28;20046;-81
2023/10/10 13:43:17;;;;;;;12.02;3.78;;;27.60;96.70;;;;;;5025996;28;20344;-81
2023/10/10 13:45:47;;;;;;;20.63;4.38;;;27.60;96.70;;;;;;5026925;28;20033;-81
2023/10/10 13:48:18;;;;;;;15.65;4.43;;;27.50;96.70;;;;;;5034706;28;20033;-80
2023/10/10 13:50:51;;;;;;;9.85;4.03;;;27.50;96.70;;;;;;5041098;28;20042;-81
2023/10/10 13:53:20;;;;;;;8.35;3.75;;;27.70;96.70;;;;;;5025642;28;20046;-81
2023/10/10 13:55:49;;;;;;;7.10;3.67;;;27.50;96.70;;;;;;5025814;28;20053;-80
2023/10/10 13:58:17;;;;;;;6.20;3.53;;;27.30;96.70;;;;;;5028455;28;20033;-80
2023/10/10 14:00:55;;;;;;;11.45;3.70;;;27.30;96.70;;;;;;5025155;28;20260;-81
2023/10/10 14:03:29;;;;;;;11.43;4.65;;;27.30;96.70;;;;;;5034095;28;20049;-80
2023/10/10 14:06:10;;;;;;;12.50;4.47;;;27.40;96.70;;;;;;5022051;28;20049;-82
2023/10/10 14:08:43;;;;;;;11.25;4.75;;;27.50;96.70;;;;;;5028526;28;20034;-82
2023/10/10 14:11:19;;;;;;;9.82;3.92;;;27.50;96.70;;;;;;5042522;28;20099;-82
2023/10/10 14:13:51;;;;;;;9.60;3.70;;;27.50;96.70;;;;;;5025074;28;20057;-82
2023/10/10 14:16:20;;;;;;;8.02;4.25;;;27.60;96.70;;;;;;5024407;28;20069;-82
2023/10/10 14:18:52;;;;;;;9.50;4.35;;;27.60;96.70;;;;;;5014494;28;20065;-82
2023/10/10 14:21:25;;;;;;;11.50;3.97;;;27.90;96.70;;;;;;5035869;28;20049;-82
2023/10/10 14:24:08;;;;;;;9.65;3.83;;;27.70;96.70;;;;;;5024483;28;20041;-82
2023/10/10 14:26:36;;;;;;;11.18;3.83;;;27.70;96.70;;;;;;5025204;28;20136;-83
2023/10/10 14:29:06;;;;;;;11.13;4.22;;;27.60;96.70;;;;;;5030625;28;20037;-81
2023/10/10 14:31:42;;;;;;;11.98;3.90;;;27.80;96.70;;;;;;5031713;28;20045;-80
2023/10/10 14:34:24;;;;;;;8.15;3.63;;;28.00;96.70;;;;;;5033462;28;20049;-82
2023/10/10 14:36:54;;;;;;;9.85;4.32;;;28.10;96.70;;;;;;5030405;28;20063;-81
2023/10/10 14:39:30;;;;;;;9.52;4.32;;;28.10;96.70;;;;;;5030919;28;20056;-82
2023/10/10 14:41:58;;;;;;;12.73;4.05;;;28.20;96.70;;;;;;5028586;28;20112;-80
2023/10/10 14:44:28;;;;;;;9.20;3.72;;;28.40;96.70;;;;;;5010005;28;20081;-81
2023/10/10 14:46:58;;;;;;;9.50;3.90;;;28.50;96.70;;;;;;5028319;28;20054;-81
2023/10/10 14:49:29;;;;;;;14.35;4.55;;;28.50;96.70;;;;;;5030889;28;20037;-80
2023/10/10 14:52:09;;;;;;;14.10;4.65;;;28.70;96.70;;;;;;5020217;28;20107;-81
2023/10/10 14:54:40;;;;;;;17.55;4.80;;;29.20;96.70;;;;;;5029733;28;20065;-81
2023/10/10 14:57:21;;;;;;;11.85;3.47;;;29.30;96.70;;;;;;5037375;28;20517;-81
2023/10/10 14:59:49;;;;;;;10.02;3.85;;;29.30;96.70;;;;;;5046682;28;20060;-81
2023/10/10 15:02:18;;;;;;;8.38;3.58;;;29.50;96.70;;;;;;5021086;28;20042;-80
2023/10/10 15:04:50;;;;;;;10.20;3.92;;;29.70;96.70;;;;;;5031235;28;20041;-82
2023/10/10 15:07:20;;;;;;;12.00;4.30;;;29.70;96.70;;;;;;5038189;28;20045;-81
2023/10/10 15:09:48;;;;;;;9.75;3.95;;;29.60;96.70;;;;;;5020185;28;20056;-80
2023/10/10 15:12:16;;;;;;;8.18;4.10;;;29.70;96.70;;;;;;5027931;28;20046;-80
2023/10/10 15:14:44;;;;;;;14.38;3.80;;;29.30;96.70;;;;;;5027354;28;20045;-80
2023/10/10 15:17:12;;;;;;;7.18;3.70;;;29.60;96.70;;;;;;5028444;28;20124;-81
2023/10/10 15:19:41;;;;;;;9.55;4.13;;;29.70;96.70;;;;;;5029372;28;20064;-80
2023/10/10 15:22:15;;;;;;;7.68;3.30;;;29.60;96.70;;;;;;5026313;28;20060;-80
2023/10/10 15:24:49;;;;;;;5.72;4.07;;;29.60;96.70;;;;;;5028762;28;20041;-80
2023/10/10 15:27:19;;;;;;;9.02;3.20;;;29.80;96.70;;;;;;5027393;28;20045;-81
2023/10/10 15:29:47;;;;;;;14.25;4.60;;;29.70;96.70;;;;;;5027182;28;20052;-81
2023/10/10 15:32:15;;;;;;;11.43;3.88;;;29.50;96.70;;;;;;5032819;28;20650;-80
2023/10/10 15:34:44;;;;;;;15.60;4.20;;;29.60;96.70;;;;;;5030590;28;20566;-81
2023/10/10 15:37:15;;;;;;;11.25;3.63;;;29.60;96.70;;;;;;5028953;28;20681;-80
2023/10/10 15:39:47;;;;;;;9.45;3.30;;;29.90;96.70;;;;;;5019391;28;20079;-81
2023/10/10 15:42:16;;;;;;;7.13;3.65;;;29.80;96.70;;;;;;5026887;28;20124;-80
2023/10/10 15:44:46;;;;;;;8.75;3.63;;;29.40;96.70;;;;;;5035842;28;20045;-80
2023/10/10 15:47:37;;;;;;;11.70;4.13;;;28.40;96.70;;;;;;5028478;28;20061;-81
2023/10/10 15:50:05;;;;;;;8.07;3.67;;;27.50;96.70;;;;;;5020399;28;20053;-80
2023/10/10 15:52:35;;;;;;;9.95;4.00;;;26.90;96.70;;;;;;5027976;28;20132;-80
2023/10/10 15:55:06;;;;;;;9.40;3.58;;;26.60;96.70;;;;;;5033639;28;20067;-80
2023/10/10 15:57:35;;;;;;;14.77;4.07;;;26.30;96.70;;;;;;5012104;28;20100;-81